Time;durP1;ratioP1;P1;durP2;ratioP2;P2;SDS_P1;SDS_P2;PMS_P1;PMS_P2;Temp;Humidity;BMP_temperature;BMP_pressure;BME280_temperature;BME280_humidity;BME280_pressure;Samples;Min_cycle;Max_cycle;Signal;HPM_P1;HPM_P2
2022/12/08 00:01:06;;;;;;;27.42;24.77;;;;;;;3.35;100.00;101033.28;5076503;28;20035;-64
2022/12/08 00:03:32;;;;;;;27.63;24.83;;;;;;;3.38;100.00;101022.69;5076476;28;20360;-64
2022/12/08 00:11:26;;;;;;;30.33;27.05;;;;;;;3.47;100.00;101016.28;5059734;28;20039;-64
2022/12/08 00:13:52;;;;;;;31.70;28.50;;;;;;;3.47;99.39;101006.66;5056635;28;20107;-64
2022/12/08 00:16:20;;;;;;;32.63;29.40;;;;;;;3.33;100.00;101000.97;5074331;28;20021;-63
2022/12/08 00:18:45;;;;;;;34.75;30.65;;;;;;;3.33;100.00;100996.56;5055259;28;20059;-64
2022/12/08 00:21:11;;;;;;;34.63;31.25;;;;;;;3.31;100.00;101003.63;5063566;28;20074;-64
2022/12/08 00:23:36;;;;;;;36.13;32.25;;;;;;;3.31;100.00;101005.41;5081432;28;20558;-64
2022/12/08 00:26:06;;;;;;;36.60;32.75;;;;;;;3.26;100.00;100992.38;5040571;28;20054;-64
2022/12/08 00:28:32;;;;;;;35.90;32.00;;;;;;;3.24;100.00;100981.06;5079736;28;20031;-64
2022/12/08 00:30:58;;;;;;;37.42;33.65;;;;;;;3.28;100.00;100990.56;5074463;28;20780;-63
2022/12/08 00:33:23;;;;;;;39.20;34.10;;;;;;;3.29;100.00;100987.03;5073986;28;20035;-64
2022/12/08 00:35:51;;;;;;;38.58;33.83;;;;;;;3.30;100.00;100983.50;5071298;28;20032;-63
2022/12/08 00:38:17;;;;;;;38.80;34.70;;;;;;;3.31;100.00;100987.84;5077857;28;20175;-64
2022/12/08 00:40:47;;;;;;;40.33;35.05;;;;;;;3.27;100.00;100980.97;5067114;28;20059;-64
2022/12/08 00:43:15;;;;;;;42.53;38.00;;;;;;;3.27;100.00;100977.50;5094018;28;20054;-64
2022/12/08 00:45:41;;;;;;;41.55;37.17;;;;;;;3.22;100.00;100969.75;5095336;28;20386;-64
2022/12/08 00:48:07;;;;;;;42.10;37.72;;;;;;;3.19;100.00;100970.69;5092759;28;20057;-64
2022/12/08 00:50:32;;;;;;;46.08;41.20;;;;;;;3.25;100.00;100977.53;5078272;28;20028;-64
2022/12/08 00:52:58;;;;;;;46.58;40.88;;;;;;;3.23;100.00;100971.44;5092835;28;20395;-64
2022/12/08 00:55:24;;;;;;;44.72;39.90;;;;;;;3.26;100.00;100968.72;5075656;28;20498;-64
2022/12/08 00:57:49;;;;;;;42.75;38.22;;;;;;;3.27;100.00;100970.47;5075895;28;20027;-64
2022/12/08 01:00:15;;;;;;;44.80;40.13;;;;;;;3.28;100.00;100961.66;5058759;28;20024;-64
2022/12/08 01:02:41;;;;;;;43.42;38.97;;;;;;;3.24;100.00;100954.78;5075108;28;20031;-64
2022/12/08 01:05:08;;;;;;;40.75;36.65;;;;;;;3.23;100.00;100958.31;5075302;28;20090;-64
2022/12/08 01:07:36;;;;;;;42.30;37.88;;;;;;;3.22;100.00;100959.22;5059279;28;20082;-64
2022/12/08 01:10:01;;;;;;;40.53;36.53;;;;;;;3.27;100.00;100961.72;5054580;28;20029;-64
2022/12/08 01:12:29;;;;;;;38.85;34.75;;;;;;;3.29;100.00;100962.50;5071259;28;20042;-64
2022/12/08 01:14:54;;;;;;;38.47;34.45;;;;;;;3.29;100.00;100952.84;5093675;28;20024;-64
2022/12/08 01:17:20;;;;;;;34.38;30.80;;;;;;;3.30;100.00;100948.50;5076057;28;20080;-64
2022/12/08 01:19:45;;;;;;;34.60;31.05;;;;;;;3.29;100.00;100942.34;5061134;28;20047;-63
2022/12/08 01:22:10;;;;;;;32.65;29.23;;;;;;;3.34;100.00;100947.47;5095125;28;20089;-64
2022/12/08 01:24:36;;;;;;;31.95;28.65;;;;;;;3.31;100.00;100945.78;5042441;28;20036;-64
2022/12/08 01:27:01;;;;;;;32.72;29.45;;;;;;;3.23;100.00;100937.28;5089520;28;20103;-64
2022/12/08 01:29:26;;;;;;;30.17;27.05;;;;;;;3.28;100.00;100945.88;5093049;28;20518;-64
2022/12/08 01:31:52;;;;;;;29.70;26.60;;;;;;;3.29;100.00;100952.00;5075043;28;20028;-64
2022/12/08 01:34:17;;;;;;;28.85;25.92;;;;;;;3.30;100.00;100946.72;5093004;28;20479;-64
2022/12/08 01:36:43;;;;;;;27.67;24.88;;;;;;;3.29;100.00;100947.59;5058647;28;20035;-64
2022/12/08 01:39:16;;;;;;;27.90;25.00;;;;;;;3.27;100.00;100941.56;5090536;28;20028;-63
2022/12/08 01:41:42;;;;;;;27.58;24.48;;;;;;;3.34;100.00;100945.69;5075151;28;20024;-63
2022/12/08 01:44:10;;;;;;;27.38;24.77;;;;;;;3.34;100.00;100939.59;5054965;28;20487;-64
2022/12/08 01:46:41;;;;;;;25.70;23.13;;;;;;;3.36;100.00;100941.25;5072736;28;20497;-64
2022/12/08 01:49:14;;;;;;;25.50;22.98;;;;;;;3.34;100.00;100940.44;5072914;28;20036;-64
2022/12/08 01:51:53;;;;;;;25.55;23.05;;;;;;;3.37;100.00;100942.13;5093511;28;20392;-64
2022/12/08 01:54:22;;;;;;;26.43;24.03;;;;;;;3.37;100.00;100934.22;5094087;28;20051;-64
2022/12/08 01:56:52;;;;;;;25.05;22.45;;;;;;;3.39;100.00;100932.41;5056426;28;20773;-64
2022/12/08 01:59:18;;;;;;;25.63;23.13;;;;;;;3.41;100.00;100923.59;5062219;28;20399;-64
2022/12/08 02:01:43;;;;;;;25.27;22.90;;;;;;;3.39;100.00;100928.03;5092700;28;20032;-64
2022/12/08 02:04:09;;;;;;;25.52;22.80;;;;;;;3.41;100.00;100933.22;5074564;28;20033;-64
2022/12/08 02:06:39;;;;;;;23.77;21.50;;;;;;;3.41;100.00;100926.22;5092272;28;20478;-64
2022/12/08 02:09:05;;;;;;;25.27;22.77;;;;;;;3.42;100.00;100932.31;5092223;28;20050;-64
2022/12/08 02:11:31;;;;;;;25.23;22.77;;;;;;;3.35;100.00;100920.25;5074321;28;20110;-64
2022/12/08 02:13:58;;;;;;;24.92;22.52;;;;;;;3.36;100.00;100922.00;5085373;28;20581;-64
2022/12/08 02:16:31;;;;;;;24.30;22.00;;;;;;;3.39;100.00;100919.28;5075694;28;20501;-64
2022/12/08 02:19:09;;;;;;;25.13;22.38;;;;;;;3.36;100.00;100914.13;5091254;28;20478;-63
2022/12/08 02:21:46;;;;;;;24.70;22.13;;;;;;;3.34;100.00;100916.78;5092659;28;20032;-64
2022/12/08 02:24:37;;;;;;;24.08;21.73;;;;;;;3.41;100.00;100915.69;5055575;28;20024;-64
2022/12/08 02:27:17;;;;;;;22.52;20.15;;;;;;;3.31;100.00;100903.75;5081493;28;20016;-64
2022/12/08 02:29:45;;;;;;;23.38;20.98;;;;;;;3.33;100.00;100901.06;5092438;28;20103;-64
2022/12/08 02:32:42;;;;;;;22.10;19.85;;;;;;;3.33;100.00;100898.44;5092049;28;20447;-64
2022/12/08 02:35:10;;;;;;;22.58;20.45;;;;;;;3.29;100.00;100897.66;5073059;28;20024;-64
2022/12/08 02:37:42;;;;;;;20.67;18.67;;;;;;;3.29;100.00;100894.19;5091966;28;20016;-64
2022/12/08 02:40:21;;;;;;;19.60;17.80;;;;;;;3.33;100.00;100886.16;5091225;28;20474;-64
2022/12/08 02:42:57;;;;;;;18.35;16.55;;;;;;;3.31;100.00;100879.22;5073995;28;20031;-64
2022/12/08 02:45:27;;;;;;;19.17;17.30;;;;;;;3.33;100.00;100886.16;5091901;28;20031;-64
2022/12/08 02:47:53;;;;;;;18.80;16.92;;;;;;;3.33;100.00;100880.03;5091947;28;20024;-64
2022/12/08 02:50:19;;;;;;;17.52;15.93;;;;;;;3.36;100.00;100878.16;5091862;28;20499;-64
2022/12/08 02:52:46;;;;;;;17.65;15.95;;;;;;;3.31;100.00;100879.22;5074261;28;20470;-64
2022/12/08 02:55:50;;;;;;;17.02;15.52;;;;;;;3.37;100.00;100874.63;5073080;28;20020;-64
2022/12/08 02:58:21;;;;;;;16.42;14.82;;;;;;;3.36;100.00;100869.44;5060667;28;20111;-64
2022/12/08 03:01:24;;;;;;;17.50;15.90;;;;;;;3.36;100.00;100858.91;5091903;28;20024;-64
2022/12/08 03:04:07;;;;;;;18.20;16.50;;;;;;;3.33;100.00;100859.88;5091772;28;20103;-64
2022/12/08 03:06:49;;;;;;;20.17;18.08;;;;;;;3.32;100.00;100862.53;5091388;28;20024;-64
2022/12/08 03:09:37;;;;;;;18.40;16.73;;;;;;;3.34;100.00;100852.84;5072207;28;20035;-64
2022/12/08 03:12:16;;;;;;;19.38;17.58;;;;;;;3.31;100.00;100860.81;5072191;28;20028;-64
2022/12/08 03:14:49;;;;;;;20.92;18.75;;;;;;;3.31;100.00;100855.56;5092005;28;20064;-63
2022/12/08 03:17:17;;;;;;;20.77;18.67;;;;;;;3.31;100.00;100856.44;5092204;28;20020;-64
2022/12/08 03:19:46;;;;;;;22.25;20.10;;;;;;;3.30;100.00;100849.47;5094916;28;20028;-64
2022/12/08 03:22:14;;;;;;;21.83;19.73;;;;;;;3.28;100.00;100846.00;5094978;28;20028;-64
2022/12/08 03:24:42;;;;;;;23.10;20.95;;;;;;;3.32;100.00;100845.00;5093723;28;20425;-64
2022/12/08 03:27:21;;;;;;;23.75;21.30;;;;;;;3.25;100.00;100835.59;5094492;28;20110;-64
2022/12/08 03:29:49;;;;;;;25.42;22.83;;;;;;;3.27;100.00;100839.06;5080283;28;20487;-64
2022/12/08 03:32:26;;;;;;;26.17;23.67;;;;;;;3.31;100.00;100843.28;5093092;28;20367;-64
2022/12/08 03:34:53;;;;;;;27.70;24.98;;;;;;;3.33;100.00;100838.84;5077399;28;20031;-64
2022/12/08 03:37:19;;;;;;;31.33;28.27;;;;;;;3.32;100.00;100837.09;5095059;28;20028;-64
2022/12/08 03:39:44;;;;;;;33.38;30.13;;;;;;;3.34;100.00;100832.66;5052865;28;20041;-64
2022/12/08 03:42:10;;;;;;;34.72;30.95;;;;;;;3.31;100.00;100830.13;5060110;28;20024;-64
2022/12/08 03:44:35;;;;;;;36.83;33.08;;;;;;;3.30;100.00;100825.81;5043318;28;20031;-64
2022/12/08 03:47:01;;;;;;;40.38;36.20;;;;;;;3.35;100.00;100829.16;5076077;28;20415;-64
2022/12/08 03:49:27;;;;;;;41.80;37.25;;;;;;;3.32;100.00;100816.06;5076722;28;20096;-64
2022/12/08 03:51:53;;;;;;;44.22;39.47;;;;;;;3.38;100.00;100810.66;5074938;28;20036;-64
2022/12/08 03:54:21;;;;;;;50.10;41.95;;;;;;;3.37;100.00;100822.06;5075148;28;20032;-64
2022/12/08 03:56:47;;;;;;;51.92;43.88;;;;;;;3.40;100.00;100810.56;5094587;28;20065;-64
2022/12/08 03:59:12;;;;;;;48.47;42.28;;;;;;;3.42;100.00;100817.50;5063077;28;20545;-64
2022/12/08 04:01:37;;;;;;;51.50;43.38;;;;;;;3.38;100.00;100813.28;5075953;28;20028;-64
2022/12/08 04:04:03;;;;;;;47.88;42.63;;;;;;;3.42;100.00;100807.00;5076446;28;20521;-64
2022/12/08 04:06:29;;;;;;;49.72;43.85;;;;;;;3.41;100.00;100807.91;5076326;28;20043;-64
2022/12/08 04:08:54;;;;;;;51.47;44.17;;;;;;;3.38;100.00;100812.38;5093842;28;20024;-64
2022/12/08 04:11:20;;;;;;;50.00;44.33;;;;;;;3.43;100.00;100802.59;5076564;28;20459;-64
2022/12/08 04:13:46;;;;;;;48.60;43.30;;;;;;;3.42;100.00;100801.72;5094396;28;20020;-64
2022/12/08 04:16:17;;;;;;;51.35;45.08;;;;;;;3.43;100.00;100805.22;5094712;28;20479;-64
2022/12/08 04:18:43;;;;;;;50.60;45.13;;;;;;;3.40;100.00;100800.06;5093808;28;20020;-64
2022/12/08 04:21:09;;;;;;;46.65;41.33;;;;;;;3.46;100.00;100804.25;5056132;28;20040;-64
2022/12/08 04:23:35;;;;;;;47.80;42.20;;;;;;;3.39;100.00;100809.72;5075996;28;20024;-64
2022/12/08 04:26:00;;;;;;;44.88;39.80;;;;;;;3.42;100.00;100800.88;5093001;28;20418;-64
2022/12/08 04:28:28;;;;;;;47.08;39.10;;;;;;;3.41;100.00;100797.41;5081968;28;20089;-64
2022/12/08 04:30:54;;;;;;;44.15;39.50;;;;;;;3.41;100.00;100794.75;5071281;28;20028;-64
2022/12/08 04:33:22;;;;;;;39.60;35.55;;;;;;;3.38;100.00;100788.72;5094058;28;20044;-63
2022/12/08 04:35:47;;;;;;;38.50;34.40;;;;;;;3.45;100.00;100790.25;5093846;28;20106;-64
2022/12/08 04:38:16;;;;;;;34.75;31.20;;;;;;;3.42;100.00;100785.09;5093687;28;20138;-64
2022/12/08 04:40:41;;;;;;;34.85;31.27;;;;;;;3.42;100.00;100785.09;5059533;28;20059;-64
2022/12/08 04:43:07;;;;;;;33.67;30.20;;;;;;;3.42;100.00;100783.31;5096927;28;20036;-64
2022/12/08 04:45:33;;;;;;;31.17;27.85;;;;;;;3.38;100.00;100773.84;5087471;28;20357;-64
2022/12/08 04:47:59;;;;;;;26.73;23.92;;;;;;;3.44;100.00;100772.75;5073731;28;20043;-64
2022/12/08 04:50:25;;;;;;;25.65;23.15;;;;;;;3.43;100.00;100763.16;5090155;28;20078;-64
2022/12/08 04:52:50;;;;;;;25.63;22.98;;;;;;;3.41;100.00;100757.97;5098591;28;20024;-64
2022/12/08 04:55:16;;;;;;;23.00;20.63;;;;;;;3.43;100.00;100771.03;5059296;28;20028;-64
2022/12/08 04:57:42;;;;;;;23.88;20.80;;;;;;;3.40;100.00;100779.88;5078181;28;20027;-64
2022/12/08 05:00:08;;;;;;;20.38;18.23;;;;;;;3.37;100.00;100774.72;5077261;28;20023;-64
2022/12/08 05:02:36;;;;;;;18.52;16.63;;;;;;;3.38;100.00;100762.44;5062551;28;20051;-64
2022/12/08 05:05:02;;;;;;;20.25;16.75;;;;;;;3.38;100.00;100762.44;5075955;28;20032;-64
2022/12/08 05:07:28;;;;;;;15.82;14.27;;;;;;;3.33;100.00;100761.75;5075808;28;20054;-64
2022/12/08 05:09:54;;;;;;;14.00;12.55;;;;;;;3.30;100.00;100762.72;5058376;28;20055;-64
2022/12/08 05:12:19;;;;;;;11.02;10.05;;;;;;;3.29;100.00;100778.53;5078521;28;20034;-64
2022/12/08 05:14:48;;;;;;;11.02;9.93;;;;;;;3.26;100.00;100779.50;5078650;28;20032;-64
2022/12/08 05:17:15;;;;;;;11.02;10.02;;;;;;;3.26;100.00;100779.50;5056634;28;20537;-64
2022/12/08 05:19:41;;;;;;;11.75;10.73;;;;;;;3.27;100.00;100777.75;5078808;28;20057;-64
2022/12/08 05:22:06;;;;;;;12.77;11.48;;;;;;;3.29;100.00;100770.66;5064050;28;20060;-64
2022/12/08 05:24:32;;;;;;;12.43;11.18;;;;;;;3.31;100.00;100763.59;5092416;28;20028;-64
2022/12/08 05:26:59;;;;;;;13.80;12.45;;;;;;;3.34;100.00;100766.09;5093333;28;20028;-64
2022/12/08 05:29:28;;;;;;;13.32;12.02;;;;;;;3.28;100.00;100755.81;5098637;28;20052;-64
2022/12/08 05:31:54;;;;;;;13.75;12.38;;;;;;;3.34;100.00;100768.72;5079499;28;20063;-65
2022/12/08 05:34:20;;;;;;;12.93;11.63;;;;;;;3.30;100.00;100767.97;5092248;28;20023;-64
2022/12/08 05:36:45;;;;;;;13.27;11.75;;;;;;;3.33;100.00;100757.38;5061757;28;20035;-64
2022/12/08 05:39:16;;;;;;;12.57;11.35;;;;;;;3.24;100.00;100762.94;5059768;28;20025;-64
2022/12/08 05:41:44;;;;;;;12.63;11.43;;;;;;;3.26;100.00;100762.88;5092710;28;20126;-64
2022/12/08 05:44:11;;;;;;;12.02;10.98;;;;;;;3.23;100.00;100761.19;5077618;28;20040;-64
2022/12/08 05:46:36;;;;;;;9.88;8.98;;;;;;;3.24;100.00;100762.09;5074191;28;20134;-64
2022/12/08 05:49:03;;;;;;;8.93;8.15;;;;;;;3.13;100.00;100771.19;5077189;28;20107;-64
2022/12/08 05:51:30;;;;;;;9.25;8.27;;;;;;;3.15;100.00;100765.88;5091494;28;20024;-63
2022/12/08 05:53:56;;;;;;;9.75;7.68;;;;;;;3.17;100.00;100758.78;5057641;28;20383;-63
2022/12/08 05:56:22;;;;;;;9.27;8.38;;;;;;;3.15;100.00;100760.63;5077973;28;20046;-63
2022/12/08 05:58:49;;;;;;;9.68;8.68;;;;;;;3.15;100.00;100761.47;5098492;28;20019;-64
2022/12/08 06:01:33;;;;;;;10.38;8.00;;;;;;;3.17;100.00;100751.75;5095749;28;20429;-63
2022/12/08 06:04:00;;;;;;;8.68;7.80;;;;;;;3.08;100.00;100753.84;5074166;28;20021;-63
2022/12/08 06:06:26;;;;;;;9.15;8.20;;;;;;;3.13;100.00;100760.66;5085125;28;20032;-63
2022/12/08 06:08:53;;;;;;;7.90;7.30;;;;;;;3.14;100.00;100748.38;5092111;28;20020;-63
2022/12/08 06:11:27;;;;;;;9.80;7.47;;;;;;;3.16;100.00;100747.41;5092519;28;20027;-63
2022/12/08 06:13:55;;;;;;;8.50;7.65;;;;;;;3.21;100.00;100749.03;5092562;28;20024;-63
2022/12/08 06:16:21;;;;;;;8.30;7.53;;;;;;;3.22;100.00;100745.50;5092011;28;20103;-63
2022/12/08 06:18:46;;;;;;;8.25;7.53;;;;;;;3.16;100.00;100739.53;5092457;28;20091;-63
2022/12/08 06:21:13;;;;;;;7.72;7.03;;;;;;;3.21;100.00;100738.50;5057536;28;20547;-64
2022/12/08 06:23:42;;;;;;;8.27;7.47;;;;;;;3.16;100.00;100743.94;5092038;28;20024;-63
2022/12/08 06:26:13;;;;;;;8.43;7.63;;;;;;;3.20;100.00;100745.53;5092342;28;20073;-63
2022/12/08 06:28:40;;;;;;;10.10;8.02;;;;;;;3.24;100.00;100744.53;5091894;28;20039;-63
2022/12/08 06:31:08;;;;;;;8.68;7.80;;;;;;;3.28;100.00;100738.25;5073977;28;20749;-63
2022/12/08 06:33:37;;;;;;;8.88;8.07;;;;;;;3.27;100.00;100735.69;5093326;28;20028;-63
2022/12/08 06:36:06;;;;;;;9.35;8.63;;;;;;;3.35;100.00;100741.53;5091567;28;20181;-63
2022/12/08 06:38:32;;;;;;;10.33;9.33;;;;;;;3.34;100.00;100739.81;5094881;28;20391;-63
2022/12/08 06:40:58;;;;;;;9.98;9.18;;;;;;;3.39;100.00;100748.41;5072249;28;20040;-63
2022/12/08 06:43:26;;;;;;;10.15;9.25;;;;;;;3.38;100.00;100752.81;5077239;28;20383;-63
2022/12/08 06:45:54;;;;;;;10.40;8.43;;;;;;;3.41;100.00;100754.44;5093237;28;20432;-64
2022/12/08 06:48:19;;;;;;;10.90;9.57;;;;;;;3.40;100.00;100750.13;5090954;28;20477;-63
2022/12/08 06:50:45;;;;;;;9.55;8.13;;;;;;;3.41;100.00;100750.06;5057104;28;20103;-63
2022/12/08 06:53:13;;;;;;;9.10;8.30;;;;;;;3.44;100.00;100746.44;5072944;28;20355;-63
2022/12/08 06:55:46;;;;;;;8.85;8.02;;;;;;;3.42;100.00;100754.41;5091795;28;20082;-63
2022/12/08 06:58:13;;;;;;;9.30;8.18;;;;;;;3.43;100.00;100744.75;5091874;28;20027;-63
2022/12/08 07:00:39;;;;;;;9.30;8.40;;;;;;;3.38;100.00;100738.78;5091598;28;20443;-64
2022/12/08 07:03:07;;;;;;;9.45;8.38;;;;;;;3.40;100.00;100743.09;5091458;28;20024;-64
2022/12/08 07:05:32;;;;;;;11.82;8.73;;;;;;;3.44;100.00;100740.34;5091543;28;20012;-64
2022/12/08 07:08:00;;;;;;;10.55;9.55;;;;;;;3.41;100.00;100734.31;5073503;28;20023;-64
2022/12/08 07:10:26;;;;;;;12.45;11.32;;;;;;;3.42;100.00;100743.03;5074217;28;20028;-64
2022/12/08 07:12:52;;;;;;;14.93;12.90;;;;;;;3.45;100.00;100744.72;5073246;28;20034;-63
2022/12/08 07:15:18;;;;;;;15.82;14.23;;;;;;;3.42;100.00;100750.94;5090911;28;20039;-64
2022/12/08 07:17:44;;;;;;;22.10;17.65;;;;;;;3.44;100.00;100745.59;5056981;28;20539;-64
2022/12/08 07:20:09;;;;;;;23.10;20.83;;;;;;;3.42;100.00;100749.16;5073316;28;20114;-63
2022/12/08 07:22:35;;;;;;;27.35;24.50;;;;;;;3.37;100.00;100740.56;5073020;28;20115;-63
2022/12/08 07:25:00;;;;;;;31.73;28.45;;;;;;;3.40;100.00;100736.97;5074733;28;20036;-64
2022/12/08 07:27:26;;;;;;;34.40;30.92;;;;;;;3.31;100.00;100746.03;5055582;28;20024;-64
2022/12/08 07:29:52;;;;;;;32.47;29.35;;;;;;;3.30;100.00;100746.97;5070614;28;20052;-63
2022/12/08 07:32:17;;;;;;;32.85;29.58;;;;;;;3.30;100.00;100746.09;5091511;28;20020;-64
2022/12/08 07:34:43;;;;;;;35.22;31.25;;;;;;;3.35;100.00;100746.78;5074666;28;20042;-64
2022/12/08 07:37:08;;;;;;;36.90;33.20;;;;;;;3.21;100.00;100739.41;5054580;28;20063;-64
2022/12/08 07:39:34;;;;;;;39.85;35.42;;;;;;;3.34;100.00;100742.44;5072369;28;20392;-64
2022/12/08 07:42:02;;;;;;;41.65;37.22;;;;;;;3.27;100.00;100740.97;5091337;28;20055;-64
2022/12/08 07:44:29;;;;;;;39.75;35.60;;;;;;;3.30;100.00;100744.34;5053851;28;20099;-64
2022/12/08 07:46:55;;;;;;;40.95;36.60;;;;;;;3.30;100.00;100741.69;5053125;28;20044;-64
2022/12/08 07:49:21;;;;;;;40.83;36.55;;;;;;;3.29;100.00;100737.34;5084506;28;20063;-64
2022/12/08 07:51:46;;;;;;;43.10;38.55;;;;;;;3.31;100.00;100738.16;5091283;28;20028;-64
2022/12/08 07:54:12;;;;;;;42.67;38.38;;;;;;;3.27;100.00;100735.69;5072885;28;20085;-64
2022/12/08 07:56:38;;;;;;;41.75;37.47;;;;;;;3.29;100.00;100755.72;5073349;28;20040;-64
2022/12/08 07:59:04;;;;;;;43.25;38.88;;;;;;;3.20;100.00;100742.91;5071065;28;20114;-64
2022/12/08 08:01:31;;;;;;;41.90;37.83;;;;;;;3.28;100.00;100746.13;5046435;28;20551;-64
2022/12/08 08:04:03;;;;;;;38.28;34.35;;;;;;;3.22;100.00;100756.00;5087205;28;20052;-64
2022/12/08 08:06:30;;;;;;;34.13;30.73;;;;;;;3.17;100.00;100750.91;5074728;28;20027;-64
2022/12/08 08:09:03;;;;;;;34.53;31.33;;;;;;;3.13;100.00;100759.81;5094035;28;20817;-64
2022/12/08 08:11:29;;;;;;;33.65;30.17;;;;;;;3.09;100.00;100742.41;5093944;28;20038;-64
2022/12/08 08:13:55;;;;;;;33.38;30.42;;;;;;;3.13;100.00;100750.16;5099136;28;20091;-64
2022/12/08 08:16:21;;;;;;;31.17;28.00;;;;;;;3.19;100.00;100749.09;5075520;28;20028;-64
2022/12/08 08:18:48;;;;;;;33.13;29.75;;;;;;;3.20;100.00;100748.16;5091375;28;20116;-64
2022/12/08 08:21:18;;;;;;;30.45;27.52;;;;;;;3.17;100.00;100754.38;5093283;28;20112;-64
2022/12/08 08:23:44;;;;;;;31.50;28.40;;;;;;;3.17;100.00;100738.63;5093428;28;20053;-64
2022/12/08 08:26:10;;;;;;;30.48;27.20;;;;;;;3.27;100.00;100757.56;5093736;28;20412;-64
2022/12/08 08:28:36;;;;;;;30.40;26.90;;;;;;;3.26;100.00;100754.97;5093475;28;20111;-64
2022/12/08 08:31:02;;;;;;;31.25;28.25;;;;;;;3.25;100.00;100755.91;5075684;28;20020;-64
2022/12/08 08:33:27;;;;;;;29.15;26.35;;;;;;;3.27;100.00;100759.34;5093159;28;20505;-64
2022/12/08 08:35:53;;;;;;;30.52;27.35;;;;;;;3.28;100.00;100753.19;5092805;28;20058;-64
2022/12/08 08:38:19;;;;;;;33.25;29.60;;;;;;;3.31;100.00;100756.53;5093217;28;20024;-64
2022/12/08 08:40:45;;;;;;;35.03;31.52;;;;;;;3.34;100.00;100753.81;5092839;28;20104;-64
2022/12/08 08:43:27;;;;;;;36.53;32.80;;;;;;;3.33;100.00;100749.47;5075845;28;20470;-64
2022/12/08 08:46:00;;;;;;;38.65;34.55;;;;;;;3.36;100.00;100746.75;5078613;28;20031;-64
2022/12/08 08:48:28;;;;;;;36.95;33.33;;;;;;;3.28;100.00;100738.25;5093410;28;20479;-64
2022/12/08 08:50:56;;;;;;;39.72;35.63;;;;;;;3.36;100.00;100746.75;5075832;28;20093;-64
2022/12/08 08:53:23;;;;;;;42.03;37.72;;;;;;;3.38;100.00;100744.94;5093381;28;20077;-64
2022/12/08 08:55:49;;;;;;;42.70;37.97;;;;;;;3.38;100.00;100744.03;5093866;28;20111;-64
2022/12/08 08:58:15;;;;;;;45.08;40.22;;;;;;;3.46;100.00;100751.66;5093492;28;20031;-64
2022/12/08 09:00:41;;;;;;;44.58;39.97;;;;;;;3.45;100.00;100752.59;5075723;28;20497;-64
2022/12/08 09:03:06;;;;;;;40.50;36.50;;;;;;;3.46;100.00;100749.91;5075487;28;20057;-64
2022/12/08 09:05:32;;;;;;;38.28;34.28;;;;;;;3.48;100.00;100752.50;5059228;28;20027;-64
2022/12/08 09:07:57;;;;;;;36.28;32.45;;;;;;;3.46;100.00;100739.38;5054568;28;20032;-64
2022/12/08 09:10:22;;;;;;;40.53;36.25;;;;;;;3.44;100.00;100738.56;5073645;28;20027;-64
2022/12/08 09:12:48;;;;;;;40.13;35.92;;;;;;;3.44;100.00;100740.34;5071531;28;20398;-64
2022/12/08 09:15:14;;;;;;;41.78;37.38;;;;;;;3.44;100.00;100743.81;5097068;28;20043;-64
2022/12/08 09:17:39;;;;;;;41.30;37.00;;;;;;;3.47;100.00;100745.50;5072914;28;20111;-64
2022/12/08 09:20:06;;;;;;;42.88;38.35;;;;;;;3.45;100.00;100749.97;5075747;28;20040;-64
2022/12/08 09:22:31;;;;;;;36.53;32.72;;;;;;;3.48;100.00;100742.81;5056586;28;20482;-64
2022/12/08 09:24:57;;;;;;;37.00;32.60;;;;;;;3.51;100.00;100739.22;5075735;28;20046;-64
2022/12/08 09:27:22;;;;;;;34.35;30.85;;;;;;;3.51;100.00;100745.34;5091822;28;20032;-63
2022/12/08 09:29:47;;;;;;;35.20;31.75;;;;;;;3.51;100.00;100736.59;5043762;28;20077;-64
2022/12/08 09:32:13;;;;;;;34.70;30.95;;;;;;;3.50;100.00;100738.38;5073720;28;20035;-64
2022/12/08 09:34:39;;;;;;;29.75;26.60;;;;;;;3.60;100.00;100734.50;5091525;28;20040;-64
2022/12/08 09:37:04;;;;;;;32.08;28.88;;;;;;;3.57;100.00;100736.38;5057004;28;20089;-64
2022/12/08 09:39:30;;;;;;;30.60;27.27;;;;;;;3.52;100.00;100735.69;5072212;28;20020;-63
2022/12/08 09:42:02;;;;;;;33.72;30.48;;;;;;;3.46;100.00;100739.38;5075402;28;20028;-64
2022/12/08 09:44:58;;;;;;;39.03;35.30;;;;;;;3.48;100.00;100739.34;5093241;28;20067;-63
2022/12/08 09:47:39;;;;;;;44.38;39.97;;;;;;;3.47;100.00;100729.72;5076290;28;20048;-64
2022/12/08 09:50:42;;;;;;;46.72;41.75;;;;;;;3.53;100.00;100745.28;5089878;28;20386;-64
2022/12/08 09:53:13;;;;;;;50.55;45.13;;;;;;;3.47;100.00;100740.22;5091292;28;20020;-64
2022/12/08 09:55:51;;;;;;;53.72;48.08;;;;;;;3.53;100.00;100729.50;5091474;28;20107;-63
2022/12/08 09:58:24;;;;;;;57.78;51.67;;;;;;;3.53;100.00;100729.50;5091279;28;20020;-63
2022/12/08 10:00:52;;;;;;;61.80;55.08;;;;;;;3.52;100.00;100725.16;5084935;28;20039;-64
2022/12/08 10:03:28;;;;;;;59.92;52.33;;;;;;;3.49;100.00;100727.91;5074739;28;20030;-64
2022/12/08 10:06:06;;;;;;;;;;;;;;;3.67;100.00;100723.75;5091861;28;20480;-66
2022/12/08 10:09:10;;;;;;;57.45;48.72;;;;;;;3.49;100.00;100731.38;5090624;28;19912;-66
2022/12/08 10:11:47;;;;;;;62.13;52.15;;;;;;;3.37;100.00;100716.91;5090774;28;20028;-66
2022/12/08 10:14:23;;;;;;;61.35;50.97;;;;;;;3.38;100.00;100728.28;5091164;28;20445;-66
2022/12/08 10:16:53;;;;;;;64.82;52.20;;;;;;;3.35;100.00;100728.38;5073201;28;20051;-66
2022/12/08 10:19:22;;;;;;;58.83;48.35;;;;;;;3.35;100.00;100726.63;5090187;28;20441;-66
2022/12/08 10:21:51;;;;;;;57.15;49.08;;;;;;;3.32;100.00;100723.22;5091249;28;20077;-66
2022/12/08 10:24:38;;;;;;;56.87;49.80;;;;;;;3.37;100.00;100716.06;5072433;28;20111;-66
2022/12/08 10:27:10;;;;;;;58.42;48.67;;;;;;;3.44;100.00;100709.66;5090675;28;20278;-66
2022/12/08 10:29:38;;;;;;;54.55;45.72;;;;;;;3.38;100.00;100708.13;5070548;28;20024;-66
2022/12/08 10:32:18;;;;;;;53.72;43.78;;;;;;;3.41;100.00;100709.75;5078071;28;20169;-66
2022/12/08 10:35:05;;;;;;;46.83;38.85;;;;;;;3.47;100.00;100711.31;5091536;28;20392;-66
2022/12/08 10:37:30;;;;;;;44.70;37.28;;;;;;;3.36;100.00;100704.69;5090897;28;20483;-66
2022/12/08 10:40:08;;;;;;;42.33;34.95;;;;;;;3.42;100.00;100703.59;5090004;28;20100;-66
2022/12/08 10:42:44;;;;;;;38.78;34.25;;;;;;;3.40;100.00;100692.28;5091249;28;20499;-66
2022/12/08 10:45:32;;;;;;;37.95;33.35;;;;;;;3.42;100.00;100704.47;5091052;28;20060;-66
2022/12/08 10:48:17;;;;;;;35.50;30.67;;;;;;;3.41;100.00;100709.75;5091253;28;20391;-66
2022/12/08 10:50:46;;;;;;;35.53;31.80;;;;;;;3.36;100.00;100717.81;5091394;28;20042;-66
2022/12/08 10:53:32;;;;;;;36.30;31.05;;;;;;;3.37;100.00;100708.16;5090807;28;20387;-66
2022/12/08 10:56:00;;;;;;;35.20;29.40;;;;;;;3.31;100.00;100709.25;5039626;28;20036;-66
2022/12/08 10:58:35;;;;;;;32.50;29.10;;;;;;;3.31;100.00;100711.00;5090916;28;20050;-66
2022/12/08 11:01:03;;;;;;;35.22;27.75;;;;;;;3.31;100.00;100711.00;5091242;28;20031;-66
2022/12/08 11:03:32;;;;;;;33.35;26.20;;;;;;;3.26;100.00;100708.53;5091041;28;20441;-66
2022/12/08 11:05:59;;;;;;;29.85;26.63;;;;;;;3.25;100.00;100713.84;5091438;28;20024;-66
2022/12/08 11:08:27;;;;;;;35.25;29.15;;;;;;;3.23;100.00;100687.63;5072082;28;20024;-66
2022/12/08 11:11:12;;;;;;;33.80;29.63;;;;;;;3.28;100.00;100696.22;5073375;28;20131;-66
2022/12/08 11:13:40;;;;;;;34.30;29.70;;;;;;;3.27;100.00;100707.66;5072788;28;20035;-66
2022/12/08 11:16:06;;;;;;;31.85;27.38;;;;;;;3.23;100.00;100699.91;5073528;28;20024;-66
2022/12/08 11:18:53;;;;;;;33.67;29.48;;;;;;;3.27;100.00;100686.63;5091100;28;20540;-66
2022/12/08 11:21:39;;;;;;;34.28;30.70;;;;;;;3.28;100.00;100693.56;5090794;28;20459;-66
2022/12/08 11:24:13;;;;;;;34.50;30.80;;;;;;;3.27;100.00;100683.13;5089810;28;20026;-66
2022/12/08 11:26:43;;;;;;;36.83;32.70;;;;;;;3.30;100.00;100677.78;5091135;28;20016;-66